createdAt,value
2022-12-27T00:01:50.612Z,5.17
2022-12-27T00:05:51.731Z,3.73
2022-12-27T00:09:53.370Z,5.80
2022-12-27T00:13:54.330Z,6.80
2022-12-27T00:17:55.864Z,6.63
2022-12-27T00:21:56.958Z,5.67
2022-12-27T00:26:02.906Z,6.10
2022-12-27T00:30:04.872Z,7.63
2022-12-27T00:34:07.188Z,5.20
2022-12-27T00:38:08.182Z,10.20
2022-12-27T00:42:09.573Z,5.30
2022-12-27T00:46:11.609Z,5.97
2022-12-27T00:50:12.765Z,11.77
2022-12-27T00:54:13.926Z,9.67
2022-12-27T00:58:15.081Z,6.53
2022-12-27T01:02:16.109Z,4.80
2022-12-27T01:06:20.358Z,7.83
2022-12-27T01:10:21.471Z,6.50
2022-12-27T01:14:22.432Z,9.87
2022-12-27T01:18:23.564Z,9.43
2022-12-27T01:22:25.327Z,6.73
2022-12-27T01:26:26.450Z,7.17
2022-12-27T01:30:27.565Z,7.10
2022-12-27T01:34:28.641Z,6.30
2022-12-27T01:38:29.764Z,6.30
2022-12-27T01:42:49.154Z,6.77
2022-12-27T01:46:50.341Z,6.00
2022-12-27T01:50:57.581Z,11.53
2022-12-27T01:55:02.307Z,9.57
2022-12-27T01:59:07.276Z,9.17
2022-12-27T02:03:08.405Z,9.77
2022-12-27T02:07:09.598Z,9.07
2022-12-27T02:11:12.518Z,7.10
2022-12-27T02:15:14.142Z,9.83
2022-12-27T02:19:30.953Z,5.13
2022-12-27T02:24:00.436Z,6.87
2022-12-27T02:28:27.866Z,7.70
2022-12-27T02:32:32.725Z,9.97
2022-12-27T02:36:36.488Z,9.87
2022-12-27T02:40:58.817Z,3.07
2022-12-27T02:45:19.055Z,8.07
2022-12-27T02:49:51.553Z,3.40
2022-12-27T02:54:14.648Z,5.20
2022-12-27T02:58:25.531Z,9.37
2022-12-27T03:02:52.970Z,8.97
2022-12-27T03:07:15.706Z,6.43
2022-12-27T03:11:35.131Z,6.60
2022-12-27T03:15:54.503Z,9.33
2022-12-27T03:20:17.843Z,15.10
2022-12-27T03:24:40.836Z,7.70
2022-12-27T03:29:02.744Z,5.73
2022-12-27T03:33:12.397Z,7.27
2022-12-27T03:37:35.918Z,7.90
2022-12-27T03:41:59.415Z,8.07
2022-12-27T03:46:35.273Z,7.30
2022-12-27T03:50:52.471Z,6.03
2022-12-27T03:54:54.903Z,2.80
2022-12-27T03:58:58.198Z,7.97
2022-12-27T04:02:59.505Z,7.60
2022-12-27T04:07:00.826Z,7.03
2022-12-27T04:11:20.182Z,4.37
2022-12-27T04:15:39.785Z,11.07
2022-12-27T04:19:58.950Z,5.53
2022-12-27T04:24:18.331Z,8.50
2022-12-27T04:28:37.735Z,20.17
2022-12-27T04:32:56.989Z,8.97
2022-12-27T04:36:58.063Z,13.03
2022-12-27T04:41:17.474Z,5.43
2022-12-27T04:45:37.407Z,5.27
2022-12-27T04:49:56.907Z,6.27
2022-12-27T04:54:16.286Z,9.03
2022-12-27T04:58:17.225Z,4.53
2022-12-27T05:02:19.223Z,9.40
2022-12-27T05:06:20.530Z,6.53
2022-12-27T05:10:40.383Z,6.43
2022-12-27T05:14:41.242Z,6.70
2022-12-27T05:18:43.451Z,5.17
2022-12-27T05:23:02.894Z,9.13
2022-12-27T05:27:03.981Z,6.30
2022-12-27T05:31:04.961Z,8.00
2022-12-27T05:35:06.521Z,6.70
2022-12-27T05:39:07.596Z,11.60
2022-12-27T05:43:08.702Z,9.87
2022-12-27T05:47:09.675Z,7.10
2022-12-27T05:51:14.418Z,12.23
2022-12-27T05:55:15.678Z,6.83
2022-12-27T05:59:16.623Z,10.03
2022-12-27T06:03:18.099Z,7.10
2022-12-27T06:07:19.273Z,10.47
2022-12-27T06:11:20.517Z,8.90
2022-12-27T06:15:21.738Z,6.40
2022-12-27T06:19:22.958Z,7.40
2022-12-27T06:23:23.915Z,7.30
2022-12-27T06:27:25.138Z,5.87
2022-12-27T06:31:26.873Z,8.37
2022-12-27T06:35:27.971Z,10.80
2022-12-27T06:39:29.664Z,6.93
2022-12-27T06:43:31.113Z,6.77
2022-12-27T06:47:32.759Z,7.37
2022-12-27T06:51:33.771Z,7.83
2022-12-27T06:55:34.867Z,5.63
2022-12-27T06:59:35.866Z,8.17
2022-12-27T07:03:37.102Z,7.03
2022-12-27T07:07:38.222Z,9.13
2022-12-27T07:11:39.477Z,9.30
2022-12-27T07:15:40.881Z,9.87
2022-12-27T07:19:41.971Z,6.80
2022-12-27T07:23:43.609Z,7.80
2022-12-27T07:27:44.740Z,4.40
2022-12-27T07:31:46.185Z,17.47
2022-12-27T07:35:47.355Z,12.10
2022-12-27T07:39:48.579Z,8.10
2022-12-27T07:43:50.060Z,5.97
2022-12-27T07:47:51.213Z,7.00
2022-12-27T07:51:52.261Z,4.87
2022-12-27T07:55:53.569Z,6.40
2022-12-27T07:59:54.832Z,7.40
2022-12-27T08:03:58.006Z,9.13
2022-12-27T08:08:01.505Z,3.80
2022-12-27T08:12:04.354Z,7.70
2022-12-27T08:16:07.711Z,8.13
2022-12-27T08:20:12.670Z,12.33
2022-12-27T08:24:13.688Z,7.33
2022-12-27T08:28:16.383Z,9.87
2022-12-27T08:32:17.507Z,6.87
2022-12-27T08:40:21.875Z,5.80
2022-12-27T08:44:23.703Z,7.27
2022-12-27T08:48:24.883Z,15.67
2022-12-27T08:52:26.191Z,6.70
2022-12-27T08:56:27.394Z,8.13
2022-12-27T09:00:29.792Z,7.37
2022-12-27T09:04:31.055Z,6.40
2022-12-27T09:08:32.446Z,4.97
2022-12-27T09:12:33.801Z,7.63
2022-12-27T09:16:35.242Z,7.73
2022-12-27T09:20:37.255Z,9.80
2022-12-27T09:24:38.412Z,11.47
2022-12-27T09:28:40.835Z,5.37
2022-12-27T09:32:41.943Z,6.50
2022-12-27T09:36:43.099Z,6.80
2022-12-27T09:40:55.751Z,9.77
2022-12-27T09:45:15.922Z,10.33
2022-12-27T09:49:32.607Z,4.40
2022-12-27T09:53:40.518Z,7.07
2022-12-27T09:57:44.400Z,5.63
2022-12-27T10:01:47.482Z,7.20
2022-12-27T10:05:56.350Z,6.17
2022-12-27T10:10:08.434Z,7.70
2022-12-27T10:14:25.459Z,10.53
2022-12-27T10:18:33.147Z,9.97
2022-12-27T10:22:44.211Z,6.07
2022-12-27T10:26:45.381Z,4.20
2022-12-27T10:30:46.507Z,5.37
2022-12-27T10:34:50.987Z,3.90
2022-12-27T10:38:52.685Z,6.77
2022-12-27T10:43:05.821Z,7.20
2022-12-27T10:47:07.988Z,6.27
2022-12-27T10:51:11.127Z,8.60
2022-12-27T10:55:36.121Z,3.00
2022-12-27T10:59:37.258Z,8.43
2022-12-27T11:03:38.412Z,9.17
2022-12-27T11:07:40.243Z,3.23
2022-12-27T11:11:41.342Z,4.30
2022-12-27T11:15:45.991Z,4.10
2022-12-27T11:19:47.786Z,5.10
2022-12-27T11:23:52.954Z,3.00
2022-12-27T11:28:00.925Z,7.33
2022-12-27T11:32:07.796Z,7.13
2022-12-27T11:36:11.467Z,5.67
2022-12-27T11:40:22.061Z,3.07
2022-12-27T11:44:35.721Z,3.70
2022-12-27T11:48:42.039Z,8.20
2022-12-27T11:52:50.214Z,6.13
2022-12-27T11:56:57.725Z,5.20
2022-12-27T12:01:38.953Z,5.13
2022-12-27T12:06:15.489Z,8.10
2022-12-27T12:10:22.895Z,5.13
2022-12-27T12:14:45.990Z,3.40
2022-12-27T12:19:09.179Z,6.17
2022-12-27T12:23:17.106Z,4.87
2022-12-27T12:27:38.473Z,4.73
2022-12-27T12:31:49.597Z,7.30
2022-12-27T12:36:12.427Z,6.53
2022-12-27T12:40:33.762Z,6.47
2022-12-27T12:44:53.089Z,8.43
2022-12-27T12:49:00.973Z,5.87
2022-12-27T12:53:23.925Z,5.13
2022-12-27T12:57:31.901Z,4.63
2022-12-27T13:02:08.327Z,6.57
2022-12-27T13:06:28.587Z,8.27
2022-12-27T13:11:02.131Z,9.23
2022-12-27T13:15:22.864Z,4.17
2022-12-27T13:19:39.928Z,3.97
2022-12-27T13:24:00.003Z,6.27
2022-12-27T13:28:29.477Z,3.60
2022-12-27T13:32:37.211Z,8.77
2022-12-27T13:36:47.556Z,5.47
2022-12-27T13:41:13.167Z,3.93
2022-12-27T13:45:23.700Z,7.60
2022-12-27T13:49:49.781Z,5.37
2022-12-27T13:54:06.609Z,5.20
2022-12-27T13:58:23.728Z,6.80
2022-12-27T14:02:52.979Z,6.60
2022-12-27T14:07:17.533Z,2.57
2022-12-27T14:11:55.940Z,6.67
2022-12-27T14:16:21.900Z,3.50
2022-12-27T14:20:41.786Z,5.57
2022-12-27T14:25:04.849Z,7.60
2022-12-27T14:29:21.586Z,4.60
2022-12-27T14:33:32.162Z,6.20
2022-12-27T14:37:59.474Z,7.43
2022-12-27T14:42:09.804Z,6.17
2022-12-27T14:46:32.717Z,9.10
2022-12-27T14:50:52.574Z,4.70
2022-12-27T14:55:17.185Z,4.50
2022-12-27T14:59:37.247Z,6.10
2022-12-27T15:03:48.245Z,9.80
2022-12-27T15:07:58.872Z,10.80
2022-12-27T15:12:03.904Z,8.40
2022-12-27T15:16:15.907Z,17.97
2022-12-27T15:20:24.448Z,7.63
2022-12-27T15:24:32.237Z,6.60
2022-12-27T15:28:52.093Z,8.83
2022-12-27T15:33:15.191Z,6.83
2022-12-27T15:37:48.982Z,9.17
2022-12-27T15:42:17.710Z,14.27
2022-12-27T15:46:45.334Z,11.93
2022-12-27T15:50:59.322Z,12.13
2022-12-27T15:55:33.176Z,8.63
2022-12-27T15:59:52.962Z,9.73
2022-12-27T16:03:55.049Z,13.60
2022-12-27T16:08:03.287Z,8.37
2022-12-27T16:12:12.574Z,8.63
2022-12-27T16:16:32.774Z,7.57
2022-12-27T16:20:33.897Z,11.73
2022-12-27T16:24:36.908Z,16.33
2022-12-27T16:28:39.801Z,10.93
2022-12-27T16:32:44.934Z,11.57
2022-12-27T16:36:47.826Z,11.93
2022-12-27T16:40:52.716Z,9.50
2022-12-27T16:45:05.082Z,15.18
2022-12-27T16:49:10.099Z,9.68
2022-12-27T16:53:46.511Z,12.20
2022-12-27T16:57:48.653Z,11.78
2022-12-27T17:01:54.229Z,8.93
2022-12-27T17:06:30.618Z,9.97
2022-12-27T17:10:15.522Z,11.30
2022-12-27T17:14:26.318Z,11.37
2022-12-27T17:18:30.863Z,12.23
2022-12-27T17:22:35.307Z,15.10
2022-12-27T17:26:43.965Z,13.13
2022-12-27T17:30:54.885Z,12.33
2022-12-27T17:35:14.264Z,10.50
2022-12-27T17:39:35.874Z,9.60
2022-12-27T17:44:16.744Z,9.53
2022-12-27T17:48:27.507Z,9.23
2022-12-27T17:52:46.963Z,8.73
2022-12-27T17:57:16.415Z,12.23
2022-12-27T18:01:17.751Z,6.07
2022-12-27T18:05:27.226Z,10.37
2022-12-27T18:09:44.926Z,9.87
2022-12-27T18:13:50.712Z,11.73
2022-12-27T18:17:54.228Z,8.50
2022-12-27T18:21:58.837Z,7.27
2022-12-27T18:26:07.832Z,6.77
2022-12-27T18:30:10.696Z,10.23
2022-12-27T18:34:33.935Z,10.13
2022-12-27T18:38:41.314Z,8.37
2022-12-27T18:42:44.587Z,13.40
2022-12-27T18:46:48.718Z,9.57
2022-12-27T18:50:52.157Z,8.90
2022-12-27T18:54:53.720Z,9.47
2022-12-27T18:59:05.266Z,7.60
2022-12-27T19:03:16.218Z,9.97
2022-12-27T19:07:17.537Z,14.30
2022-12-27T19:11:33.072Z,14.03
2022-12-27T19:15:38.046Z,15.17
2022-12-27T19:19:39.826Z,10.63
2022-12-27T19:23:42.775Z,15.97
2022-12-27T19:28:11.763Z,13.70
2022-12-27T19:32:15.484Z,14.03
2022-12-27T19:36:18.943Z,11.73
2022-12-27T19:40:20.466Z,13.23
2022-12-27T19:44:21.612Z,12.80
2022-12-27T19:48:22.867Z,12.60
2022-12-27T19:52:26.475Z,12.30
2022-12-27T19:56:27.543Z,7.77
2022-12-27T20:00:29.563Z,15.70
2022-12-27T20:04:30.769Z,16.43
2022-12-27T20:08:34.898Z,15.17
2022-12-27T20:12:36.170Z,11.70
2022-12-27T20:16:37.480Z,13.67
2022-12-27T20:20:38.656Z,14.93
2022-12-27T20:24:39.763Z,15.53
2022-12-27T20:28:40.787Z,18.63
2022-12-27T20:32:41.963Z,24.83
2022-12-27T20:36:43.935Z,16.77
2022-12-27T20:40:45.128Z,17.03
2022-12-27T20:44:46.255Z,16.47
2022-12-27T20:48:47.546Z,19.83
2022-12-27T20:52:48.629Z,19.07
2022-12-27T20:56:49.739Z,14.10
2022-12-27T21:00:51.276Z,27.73
2022-12-27T21:04:52.472Z,24.43
2022-12-27T21:08:57.383Z,20.83
2022-12-27T21:12:56.600Z,15.17
2022-12-27T21:16:58.291Z,18.70
2022-12-27T21:21:09.078Z,20.63
2022-12-27T21:25:10.772Z,13.53
2022-12-27T21:29:13.642Z,18.27
2022-12-27T21:33:14.771Z,18.33
2022-12-27T21:37:15.811Z,14.20
2022-12-27T21:41:26.976Z,13.40
2022-12-27T21:45:28.062Z,15.40
2022-12-27T21:49:29.082Z,19.20
2022-12-27T21:53:30.631Z,14.73
2022-12-27T21:57:31.944Z,11.30
2022-12-27T22:01:51.485Z,18.77
2022-12-27T22:05:36.486Z,15.03
2022-12-27T22:09:37.515Z,14.07
2022-12-27T22:13:38.997Z,11.23
2022-12-27T22:17:41.193Z,18.37
2022-12-27T22:21:43.113Z,9.57
2022-12-27T22:25:45.659Z,13.07
2022-12-27T22:29:47.135Z,10.57
2022-12-27T22:33:49.587Z,15.33
2022-12-27T22:37:50.719Z,20.63
2022-12-27T22:41:51.978Z,14.70
2022-12-27T22:45:54.029Z,13.10
2022-12-27T22:49:55.222Z,16.40
2022-12-27T22:53:57.414Z,25.20
2022-12-27T22:57:58.446Z,25.00
2022-12-27T23:01:59.752Z,16.30
2022-12-27T23:06:01.136Z,14.90
2022-12-27T23:10:02.484Z,19.87
2022-12-27T23:14:06.614Z,23.70
2022-12-27T23:18:07.797Z,16.70
2022-12-27T23:22:08.945Z,17.90
2022-12-27T23:26:15.036Z,16.87
2022-12-27T23:30:16.492Z,27.23
2022-12-27T23:34:21.270Z,27.57
2022-12-27T23:38:20.462Z,23.60
2022-12-27T23:42:21.610Z,29.47
2022-12-27T23:46:31.859Z,23.30
2022-12-27T23:50:32.916Z,27.77
2022-12-27T23:54:34.089Z,24.17
2022-12-27T23:58:36.032Z,24.17
